Time;durP1;ratioP1;P1;durP2;ratioP2;P2;SDS_P1;SDS_P2;PMS_P1;PMS_P2;Temp;Humidity;BMP_temperature;BMP_pressure;BME280_temperature;BME280_humidity;BME280_pressure;Samples;Min_cycle;Max_cycle;Signal;HPM_P1;HPM_P2
2022/01/03 00:00:50;;;;;;;35.70;19.00;;;;;;;4.52;75.70;102061.06;5028792;28;20441;-74
2022/01/03 00:03:21;;;;;;;40.42;20.65;;;;;;;4.50;75.47;102056.75;5028381;28;20053;-72
2022/01/03 00:05:48;;;;;;;39.08;21.80;;;;;;;4.50;75.74;102056.75;5027883;28;20052;-70
2022/01/03 00:08:15;;;;;;;38.72;21.08;;;;;;;4.50;75.65;102055.00;5026587;28;20515;-72
2022/01/03 00:10:41;;;;;;;39.15;21.38;;;;;;;4.49;75.65;102055.88;5028512;28;20041;-70
2022/01/03 00:13:08;;;;;;;40.65;21.02;;;;;;;4.51;75.73;102054.13;5027861;28;20111;-70
2022/01/03 00:15:35;;;;;;;44.13;22.13;;;;;;;4.52;75.63;102054.97;5028070;28;20054;-71
2022/01/03 00:18:02;;;;;;;39.42;20.75;;;;;;;4.51;75.68;102045.50;5028105;28;20084;-72
2022/01/03 00:20:29;;;;;;;36.17;19.92;;;;;;;4.49;75.71;102040.28;5028261;28;20053;-70
2022/01/03 00:23:07;;;;;;;37.05;19.33;;;;;;;4.48;75.77;102042.91;5028300;28;20046;-70
2022/01/03 00:25:41;;;;;;;37.50;20.00;;;;;;;4.47;75.81;102044.66;5027177;28;20046;-71
2022/01/03 00:28:15;;;;;;;37.15;19.25;;;;;;;4.49;75.87;102045.47;5028094;28;20114;-73
2022/01/03 00:30:43;;;;;;;43.35;21.60;;;;;;;4.51;75.68;102033.34;5029974;28;20406;-70
2022/01/03 00:33:11;;;;;;;37.42;20.27;;;;;;;4.53;75.84;102041.13;5032167;28;20049;-70
2022/01/03 00:35:41;;;;;;;41.80;21.58;;;;;;;4.49;75.74;102048.06;5031908;28;20060;-70
2022/01/03 00:38:11;;;;;;;40.45;20.30;;;;;;;4.50;76.08;102039.41;5031522;28;20052;-70
2022/01/03 00:40:39;;;;;;;41.42;20.45;;;;;;;4.51;75.73;102030.75;5030920;28;20045;-70
2022/01/03 00:43:06;;;;;;;35.22;18.23;;;;;;;4.46;76.05;102018.69;5030934;28;20053;-70
2022/01/03 00:45:32;;;;;;;38.03;19.30;;;;;;;4.47;76.15;102021.25;5031782;28;20049;-71
2022/01/03 00:47:59;;;;;;;36.38;18.98;;;;;;;4.51;75.76;102027.28;5030286;28;20384;-70
2022/01/03 00:50:27;;;;;;;34.65;18.10;;;;;;;4.51;75.78;102017.75;5031223;28;20049;-70
2022/01/03 00:52:54;;;;;;;38.03;18.95;;;;;;;4.51;75.88;102022.09;5031680;28;20041;-74
2022/01/03 00:55:21;;;;;;;34.03;17.92;;;;;;;4.51;76.03;102028.13;5017477;28;20049;-70
2022/01/03 00:58:06;;;;;;;36.33;18.75;;;;;;;4.52;75.84;102024.66;5031982;28;20053;-72
2022/01/03 01:00:36;;;;;;;37.17;18.98;;;;;;;4.54;75.90;102022.03;5018626;28;20076;-70
2022/01/03 01:03:11;;;;;;;38.42;19.00;;;;;;;4.49;75.90;102005.63;5031706;28;20058;-70
2022/01/03 01:05:43;;;;;;;36.22;19.42;;;;;;;4.51;75.98;102014.28;5031702;28;20041;-70
2022/01/03 01:08:11;;;;;;;35.28;17.88;;;;;;;4.53;76.02;102029.00;5031531;28;20049;-70
2022/01/03 01:10:40;;;;;;;39.95;19.70;;;;;;;4.50;75.87;102020.38;5031464;28;20050;-70
2022/01/03 01:13:09;;;;;;;39.55;17.88;;;;;;;4.48;76.01;102002.19;5031330;28;20085;-70
2022/01/03 01:15:36;;;;;;;36.92;17.83;;;;;;;4.51;75.84;101993.50;5030083;28;20049;-73
2022/01/03 01:18:04;;;;;;;31.55;16.90;;;;;;;4.55;76.07;102016.81;5031537;28;20484;-70
2022/01/03 01:20:33;;;;;;;32.55;16.17;;;;;;;4.53;75.99;102021.19;5031716;28;20086;-70
2022/01/03 01:23:01;;;;;;;31.08;16.55;;;;;;;4.55;76.08;102023.78;5031309;28;20049;-70
2022/01/03 01:28:05;;;;;;;;;;;;;;;4.55;76.07;102035.03;5031616;28;20057;-70
2022/01/03 01:30:33;;;;;;;32.38;15.93;;;;;;;4.57;76.01;102037.59;5031218;28;20363;-70
2022/01/03 01:33:04;;;;;;;33.25;16.50;;;;;;;4.56;76.16;102038.50;5029690;28;20042;-70
2022/01/03 01:35:36;;;;;;;31.38;16.63;;;;;;;4.62;75.98;102042.75;5030973;28;20056;-74
2022/01/03 01:38:04;;;;;;;29.40;15.82;;;;;;;4.58;76.06;102018.53;5030471;28;20049;-70
2022/01/03 01:40:30;;;;;;;32.17;15.60;;;;;;;4.58;76.08;102015.94;5030977;28;20053;-71
2022/01/03 01:43:01;;;;;;;27.92;14.80;;;;;;;4.61;76.34;102007.22;5031010;28;20115;-70
2022/01/03 01:45:29;;;;;;;30.13;14.95;;;;;;;4.55;76.25;102001.22;5030871;28;20056;-70
2022/01/03 01:47:58;;;;;;;30.20;16.23;;;;;;;4.61;76.49;102004.63;5030874;28;20049;-70
2022/01/03 01:50:27;;;;;;;27.23;15.45;;;;;;;4.60;75.96;101998.59;5029966;28;20386;-70
2022/01/03 01:52:56;;;;;;;30.75;15.10;;;;;;;4.62;76.17;101986.44;5030369;28;20046;-72
2022/01/03 01:55:23;;;;;;;28.95;15.23;;;;;;;4.56;76.28;101989.09;5030561;28;20045;-70
2022/01/03 01:58:05;;;;;;;26.08;14.52;;;;;;;4.55;76.00;101984.78;5030282;28;20099;-70
2022/01/03 02:00:33;;;;;;;22.58;12.90;;;;;;;4.54;76.16;101989.09;5017633;28;20046;-69
2022/01/03 02:03:19;;;;;;;24.75;14.02;;;;;;;4.59;76.03;101994.25;5029271;28;20065;-70
2022/01/03 02:06:02;;;;;;;25.88;14.38;;;;;;;4.57;76.01;101983.88;5018013;28;20049;-70
2022/01/03 02:08:37;;;;;;;26.90;13.73;;;;;;;4.53;75.99;101984.81;5029045;28;20050;-74
2022/01/03 02:11:22;;;;;;;25.57;14.37;;;;;;;4.54;75.90;101972.66;5030509;28;20068;-70
2022/01/03 02:13:49;;;;;;;26.58;14.80;;;;;;;4.53;75.91;101986.53;5030272;28;20280;-71
2022/01/03 02:16:16;;;;;;;24.38;13.85;;;;;;;4.56;76.09;101986.50;5030368;28;20053;-70
2022/01/03 02:18:43;;;;;;;25.70;14.43;;;;;;;4.56;76.15;101996.91;5030640;28;20061;-71
2022/01/03 02:21:10;;;;;;;24.10;13.73;;;;;;;4.54;75.94;101988.25;5030390;28;20042;-70
2022/01/03 02:23:37;;;;;;;25.05;14.00;;;;;;;4.56;75.86;101979.56;5030283;28;20053;-70
2022/01/03 02:26:04;;;;;;;26.48;14.50;;;;;;;4.59;75.71;101973.47;5028798;28;20085;-70
2022/01/03 02:28:31;;;;;;;24.13;13.70;;;;;;;4.58;76.00;101971.72;5030225;28;20046;-73
2022/01/03 02:30:57;;;;;;;25.13;14.02;;;;;;;4.53;76.00;101970.94;5030147;28;20053;-70
2022/01/03 02:33:24;;;;;;;25.73;14.15;;;;;;;4.55;76.08;101989.97;5030226;28;20100;-71
2022/01/03 02:35:50;;;;;;;25.38;14.15;;;;;;;4.56;76.00;101981.31;5029599;28;20107;-71
2022/01/03 02:38:18;;;;;;;23.67;13.38;;;;;;;4.57;76.06;101976.09;5029808;28;20089;-71
2022/01/03 02:40:44;;;;;;;25.05;13.80;;;;;;;4.62;75.62;101970.84;5029614;28;20054;-70
2022/01/03 02:43:11;;;;;;;25.02;14.07;;;;;;;4.63;75.75;101953.50;5028752;28;20500;-70
2022/01/03 02:45:38;;;;;;;25.92;13.93;;;;;;;4.63;75.66;101954.34;5029886;28;20095;-70
2022/01/03 02:48:11;;;;;;;25.92;14.43;;;;;;;4.63;75.62;101963.88;5029407;28;20057;-70
2022/01/03 02:50:39;;;;;;;25.58;13.23;;;;;;;4.63;75.52;101956.94;5029799;28;20056;-71
2022/01/03 02:53:06;;;;;;;23.75;13.35;;;;;;;4.62;75.63;101946.56;5028547;28;20053;-70
2022/01/03 02:55:32;;;;;;;23.98;14.20;;;;;;;4.62;75.58;101963.03;5029772;28;20085;-73
2022/01/03 02:58:06;;;;;;;27.02;14.02;;;;;;;4.63;75.71;101976.88;5028422;28;20050;-70
2022/01/03 03:00:50;;;;;;;24.40;13.93;;;;;;;4.64;75.14;101976.88;5017892;28;20049;-74
2022/01/03 03:03:20;;;;;;;23.98;13.68;;;;;;;4.65;75.47;101968.19;5029117;28;20559;-72
2022/01/03 03:05:47;;;;;;;24.13;14.00;;;;;;;4.64;75.44;101966.47;5029257;28;20169;-70
2022/01/03 03:08:14;;;;;;;21.67;13.68;;;;;;;4.63;75.45;101941.34;5028828;28;20099;-70
2022/01/03 03:10:41;;;;;;;23.58;13.68;;;;;;;4.64;75.35;101963.03;5029288;28;20542;-71
2022/01/03 03:13:08;;;;;;;23.70;14.27;;;;;;;4.62;75.38;101965.66;5027931;28;20053;-70
2022/01/03 03:15:35;;;;;;;23.83;13.45;;;;;;;4.65;75.47;101964.75;5029071;28;20049;-70
2022/01/03 03:18:02;;;;;;;25.05;14.48;;;;;;;4.65;75.47;101964.75;5029224;28;20041;-71
2022/01/03 03:20:31;;;;;;;25.63;13.70;;;;;;;4.66;75.40;101964.72;5029237;28;20458;-73
2022/01/03 03:22:59;;;;;;;27.45;13.93;;;;;;;4.66;75.33;101964.72;5028742;28;20495;-71
2022/01/03 03:25:29;;;;;;;26.88;14.68;;;;;;;4.66;75.38;101953.44;5028955;28;20078;-71
2022/01/03 03:28:00;;;;;;;27.35;14.77;;;;;;;4.67;75.38;101948.25;5028741;28;20045;-70
2022/01/03 03:30:33;;;;;;;30.75;15.68;;;;;;;4.67;75.36;101949.97;5028152;28;20107;-70
2022/01/03 03:33:07;;;;;;;30.80;16.95;;;;;;;4.66;75.53;101951.72;5028713;28;20045;-70
2022/01/03 03:35:34;;;;;;;28.90;16.60;;;;;;;4.65;74.88;101951.75;5028764;28;20053;-73
2022/01/03 03:38:01;;;;;;;25.75;15.80;;;;;;;4.65;75.47;101950.00;5028169;28;20045;-73
2022/01/03 03:40:28;;;;;;;30.92;16.67;;;;;;;4.63;75.39;101946.53;5028652;28;20053;-73
2022/01/03 03:42:55;;;;;;;28.45;17.92;;;;;;;4.63;75.63;101936.13;5028791;28;20081;-74
2022/01/03 03:45:22;;;;;;;30.25;17.55;;;;;;;4.62;75.41;101924.03;5028634;28;20561;-71
2022/01/03 03:47:51;;;;;;;28.25;17.63;;;;;;;4.60;75.65;101911.91;5027744;28;20084;-70
2022/01/03 03:50:19;;;;;;;29.92;17.63;;;;;;;4.62;75.67;101926.66;5028895;28;20045;-71
2022/01/03 03:52:50;;;;;;;30.10;18.08;;;;;;;4.63;75.51;101927.50;5028560;28;20067;-70
2022/01/03 03:55:17;;;;;;;30.70;19.08;;;;;;;4.65;75.77;101928.34;5028530;28;20053;-70
2022/01/03 03:57:44;;;;;;;28.13;18.08;;;;;;;4.64;75.63;101947.41;5029399;28;20041;-71
2022/01/03 04:00:15;;;;;;;32.42;18.88;;;;;;;4.61;75.94;101935.31;5028226;28;20099;-73
2022/01/03 04:02:42;;;;;;;31.25;19.05;;;;;;;4.62;76.00;101908.44;5028367;28;20045;-71
2022/01/03 04:05:09;;;;;;;29.48;18.35;;;;;;;4.67;75.77;101900.56;5026138;28;20057;-73
2022/01/03 04:07:36;;;;;;;32.22;19.00;;;;;;;4.65;75.76;101907.53;5028096;28;20048;-70
2022/01/03 04:10:08;;;;;;;30.80;18.85;;;;;;;4.62;76.08;101899.78;5028437;28;20571;-70
2022/01/03 04:12:35;;;;;;;29.33;17.27;;;;;;;4.61;76.16;101895.44;5028168;28;20918;-70
2022/01/03 04:15:03;;;;;;;33.85;18.90;;;;;;;4.63;76.30;101898.91;5028562;28;20509;-70
2022/01/03 04:17:30;;;;;;;34.15;19.40;;;;;;;4.58;76.29;101884.22;5028398;28;20049;-70
2022/01/03 04:19:57;;;;;;;35.50;18.50;;;;;;;4.60;76.30;101892.00;5027199;28;20046;-71
2022/01/03 04:22:23;;;;;;;31.30;18.15;;;;;;;4.63;76.12;101894.53;5028272;28;20045;-70
2022/01/03 04:24:50;;;;;;;36.00;19.10;;;;;;;4.62;76.30;101885.06;5028264;28;20042;-70
2022/01/03 04:27:17;;;;;;;34.85;20.10;;;;;;;4.63;76.48;101865.09;5028427;28;20050;-71
2022/01/03 04:29:44;;;;;;;33.78;20.50;;;;;;;4.64;76.30;101872.88;5028206;28;20092;-70
2022/01/03 04:32:10;;;;;;;35.03;19.88;;;;;;;4.61;76.39;101877.25;5028216;28;20049;-74
2022/01/03 04:34:37;;;;;;;36.00;20.27;;;;;;;4.58;76.47;101863.44;5028112;28;20042;-70
2022/01/03 04:37:09;;;;;;;33.75;19.10;;;;;;;4.57;76.38;101853.91;5026746;28;20132;-70
2022/01/03 04:39:36;;;;;;;36.80;20.08;;;;;;;4.59;76.53;101853.88;5028059;28;20045;-70
2022/01/03 04:42:03;;;;;;;29.10;18.20;;;;;;;4.61;76.67;101859.94;5027740;28;20053;-71
2022/01/03 04:44:31;;;;;;;32.78;19.63;;;;;;;4.58;76.59;101859.94;5028474;28;20462;-70
2022/01/03 04:46:59;;;;;;;31.23;19.77;;;;;;;4.60;76.61;101867.72;5028271;28;20041;-70
2022/01/03 04:49:26;;;;;;;34.25;19.95;;;;;;;4.60;76.59;101863.41;5028008;28;20087;-70
2022/01/03 04:51:53;;;;;;;33.30;20.98;;;;;;;4.64;76.44;101859.88;5027941;28;20041;-73
2022/01/03 04:54:20;;;;;;;32.67;20.67;;;;;;;4.63;76.55;101844.31;5027126;28;20041;-71
2022/01/03 04:56:47;;;;;;;36.55;20.73;;;;;;;4.65;76.35;101838.19;5027797;28;20111;-70
2022/01/03 04:59:19;;;;;;;31.77;19.15;;;;;;;4.65;76.43;101850.34;5027940;28;20107;-71
2022/01/03 05:01:48;;;;;;;29.77;17.33;;;;;;;4.62;76.43;101876.38;5027230;28;20053;-70
2022/01/03 05:04:15;;;;;;;27.10;17.38;;;;;;;4.61;76.63;101874.66;5028205;28;20415;-71
2022/01/03 05:06:42;;;;;;;31.00;18.83;;;;;;;4.63;76.57;101863.34;5027597;28;20050;-70
2022/01/03 05:09:08;;;;;;;27.70;17.98;;;;;;;4.63;76.47;101863.34;5026573;28;20462;-70
2022/01/03 05:11:35;;;;;;;27.23;18.05;;;;;;;4.64;76.50;101865.06;5027674;28;20046;-71
2022/01/03 05:14:01;;;;;;;30.10;18.33;;;;;;;4.64;76.46;101859.88;5027592;28;20045;-73
2022/01/03 05:16:28;;;;;;;34.10;19.30;;;;;;;4.63;76.50;101870.31;5029240;28;20057;-70
2022/01/03 05:18:55;;;;;;;32.15;18.77;;;;;;;4.62;76.48;101873.78;5031338;28;20053;-70
2022/01/03 05:21:21;;;;;;;29.75;18.40;;;;;;;4.63;76.47;101889.34;5031427;28;20123;-70
2022/01/03 05:23:48;;;;;;;38.22;21.58;;;;;;;4.63;76.48;101888.50;5031177;28;20453;-71
2022/01/03 05:26:16;;;;;;;34.72;19.75;;;;;;;4.64;76.63;101883.28;5030253;28;20487;-70
2022/01/03 05:28:45;;;;;;;38.55;21.48;;;;;;;4.66;76.44;101885.84;5031387;28;20504;-71
2022/01/03 05:31:12;;;;;;;34.25;19.40;;;;;;;4.65;76.71;101878.94;5031225;28;20052;-71
2022/01/03 05:33:39;;;;;;;32.92;19.02;;;;;;;4.66;76.70;101872.84;5031071;28;20060;-71
2022/01/03 05:36:06;;;;;;;37.10;18.23;;;;;;;4.66;76.97;101871.13;5031653;28;20045;-73
2022/01/03 05:38:32;;;;;;;38.08;20.05;;;;;;;4.67;76.72;101864.16;5029813;28;20095;-70
2022/01/03 05:40:59;;;;;;;34.53;18.55;;;;;;;4.67;76.85;101862.44;5030958;28;20122;-70
2022/01/03 05:43:26;;;;;;;39.92;21.60;;;;;;;4.69;76.96;101867.63;5030810;28;20042;-72
2022/01/03 05:45:52;;;;;;;36.30;19.65;;;;;;;4.68;76.96;101879.75;5031213;28;20049;-71
2022/01/03 05:48:19;;;;;;;43.25;20.85;;;;;;;4.69;77.03;101872.81;5031122;28;20459;-71
2022/01/03 05:50:46;;;;;;;38.80;19.75;;;;;;;4.69;76.99;101868.47;5031142;28;20050;-70
2022/01/03 05:53:12;;;;;;;38.40;18.15;;;;;;;4.71;76.91;101864.13;5029351;28;20049;-70
2022/01/03 05:55:39;;;;;;;35.58;18.23;;;;;;;4.71;77.11;101864.13;5030665;28;20092;-72
2022/01/03 05:58:05;;;;;;;35.85;18.63;;;;;;;4.72;76.88;101870.16;5030574;28;20045;-71
2022/01/03 06:00:32;;;;;;;35.70;17.73;;;;;;;4.71;77.10;101861.50;5030705;28;20092;-71
2022/01/03 06:02:59;;;;;;;35.50;18.48;;;;;;;4.72;76.99;101855.44;5030741;28;20491;-71
2022/01/03 06:05:42;;;;;;;37.08;19.63;;;;;;;4.73;77.25;101864.09;5030693;28;20057;-73
2022/01/03 06:08:09;;;;;;;37.63;20.70;;;;;;;4.73;77.19;101845.88;5030226;28;20103;-71
2022/01/03 06:10:40;;;;;;;35.08;18.70;;;;;;;4.72;77.30;101867.56;5029548;28;20049;-73
2022/01/03 06:13:06;;;;;;;39.80;19.95;;;;;;;4.70;77.12;101854.59;5029519;28;20046;-71
2022/01/03 06:15:37;;;;;;;36.22;20.63;;;;;;;4.68;77.23;101874.53;5030269;28;20053;-72
2022/01/03 06:18:04;;;;;;;38.55;20.70;;;;;;;4.72;77.24;101864.97;5030159;28;20084;-72
2022/01/03 06:20:31;;;;;;;44.03;21.52;;;;;;;4.70;77.30;101864.16;5030384;28;20054;-70
2022/01/03 06:22:57;;;;;;;42.25;20.95;;;;;;;4.70;77.31;101843.34;5030167;28;20046;-73
2022/01/03 06:25:24;;;;;;;46.05;22.02;;;;;;;4.72;77.16;101838.97;5030344;28;20080;-72
2022/01/03 06:27:51;;;;;;;36.35;19.88;;;;;;;4.73;77.32;101843.28;5028336;28;20076;-71
2022/01/03 06:30:17;;;;;;;40.55;19.63;;;;;;;4.69;77.39;101839.03;5030213;28;20107;-71
2022/01/03 06:32:48;;;;;;;37.72;20.42;;;;;;;4.70;77.42;101841.59;5029970;28;20389;-71
2022/01/03 06:35:14;;;;;;;36.17;19.35;;;;;;;4.68;77.43;101845.94;5029745;28;20079;-72
2022/01/03 06:37:41;;;;;;;41.75;20.50;;;;;;;4.68;77.73;101843.34;5029540;28;20045;-73
2022/01/03 06:40:08;;;;;;;38.35;19.77;;;;;;;4.72;77.53;101842.44;5030075;28;20130;-74
2022/01/03 06:42:35;;;;;;;42.15;19.60;;;;;;;4.74;77.43;101845.00;5028826;28;20046;-73
2022/01/03 06:45:03;;;;;;;40.63;20.15;;;;;;;4.69;77.53;101847.66;5029759;28;20037;-70
2022/01/03 06:47:29;;;;;;;41.33;20.23;;;;;;;4.67;77.43;101844.25;5030095;28;20060;-70
2022/01/03 06:49:56;;;;;;;42.25;21.02;;;;;;;4.72;77.59;101836.38;5029445;28;20045;-74
2022/01/03 06:52:23;;;;;;;42.55;20.70;;;;;;;4.72;77.54;101842.44;5029291;28;20097;-73
2022/01/03 06:54:49;;;;;;;42.78;20.25;;;;;;;4.72;77.40;101839.84;5029387;28;20057;-73
2022/01/03 06:57:16;;;;;;;38.08;20.50;;;;;;;4.72;77.51;101836.38;5027843;28;20060;-70
2022/01/03 06:59:43;;;;;;;40.50;19.38;;;;;;;4.73;77.65;101832.88;5029567;28;20092;-70
2022/01/03 07:02:10;;;;;;;39.47;20.48;;;;;;;4.76;77.38;101850.19;5016014;28;20106;-71
2022/01/03 07:04:37;;;;;;;40.15;18.52;;;;;;;4.73;77.75;101859.72;5029521;28;20536;-71
2022/01/03 07:07:04;;;;;;;45.28;21.58;;;;;;;4.77;77.31;101854.50;5028501;28;20057;-72
2022/01/03 07:09:32;;;;;;;44.67;20.98;;;;;;;4.78;77.51;101848.44;5029222;28;20407;-71
2022/01/03 07:11:58;;;;;;;44.17;19.75;;;;;;;4.78;77.42;101861.44;5028901;28;20565;-71
2022/01/03 07:19:42;;;;;;;44.28;21.35;;;;;;;4.82;77.61;101861.34;5029149;28;20554;-71
2022/01/03 07:22:09;;;;;;;40.80;20.17;;;;;;;4.82;77.60;101869.16;5028746;28;20515;-71
2022/01/03 07:24:38;;;;;;;42.65;21.80;;;;;;;4.87;77.54;101869.09;5027917;28;20046;-73
2022/01/03 07:27:08;;;;;;;40.63;19.75;;;;;;;4.87;77.35;101858.69;5028966;28;20057;-74
2022/01/03 07:29:35;;;;;;;50.28;21.70;;;;;;;4.89;77.38;101856.94;5028838;28;20822;-71
2022/01/03 07:32:02;;;;;;;37.35;20.92;;;;;;;4.92;77.68;101863.84;5028788;28;20079;-71
2022/01/03 07:34:30;;;;;;;42.38;19.83;;;;;;;4.93;77.36;101870.72;5029032;28;20050;-72
2022/01/03 07:36:57;;;;;;;39.33;20.63;;;;;;;4.94;77.24;101877.66;5029001;28;20045;-73
2022/01/03 07:39:24;;;;;;;44.80;21.33;;;;;;;4.94;77.38;101873.34;5027268;28;20121;-72
2022/01/03 07:41:50;;;;;;;46.92;21.52;;;;;;;4.96;77.47;101862.91;5028684;28;20095;-71
2022/01/03 07:44:17;;;;;;;44.33;21.25;;;;;;;4.99;77.42;101860.22;5028603;28;20076;-73
2022/01/03 07:46:44;;;;;;;46.00;21.40;;;;;;;4.96;77.44;101855.94;5028898;28;20041;-73
2022/01/03 07:49:10;;;;;;;45.10;21.30;;;;;;;4.98;77.54;101859.38;5028672;28;20046;-72
2022/01/03 07:51:37;;;;;;;47.70;21.88;;;;;;;4.97;77.44;101852.47;5027452;28;20071;-71
2022/01/03 07:54:03;;;;;;;45.50;21.48;;;;;;;5.00;77.59;101848.94;5028394;28;20049;-71
2022/01/03 07:56:32;;;;;;;43.70;21.33;;;;;;;5.02;77.34;101848.03;5027269;28;20053;-71
2022/01/03 07:58:59;;;;;;;49.80;24.02;;;;;;;5.03;77.37;101848.94;5028348;28;20051;-71
2022/01/03 08:01:25;;;;;;;46.65;24.25;;;;;;;5.02;77.33;101845.44;5028733;28;20045;-73
2022/01/03 08:03:52;;;;;;;50.10;24.60;;;;;;;5.04;77.39;101835.88;5028582;28;20045;-71
2022/01/03 08:06:39;;;;;;;55.00;25.15;;;;;;;5.04;77.56;101846.28;5028496;28;20283;-71
2022/01/03 08:09:05;;;;;;;46.25;23.52;;;;;;;5.06;77.33;101843.66;5027833;28;20080;-71
2022/01/03 08:11:32;;;;;;;44.08;21.92;;;;;;;5.09;77.36;101840.16;5028428;28;20462;-70
2022/01/03 08:13:58;;;;;;;47.75;24.52;;;;;;;5.13;77.39;101821.88;5027033;28;20149;-72
2022/01/03 08:16:26;;;;;;;43.03;22.65;;;;;;;5.20;77.16;101817.41;5028723;28;20411;-70
2022/01/03 08:18:53;;;;;;;46.90;24.50;;;;;;;5.22;77.17;101832.13;5028294;28;20073;-73
2022/01/03 08:21:20;;;;;;;48.05;24.25;;;;;;;5.26;77.04;101830.31;5028216;28;20061;-71
2022/01/03 08:23:46;;;;;;;49.30;26.48;;;;;;;5.26;77.06;101835.53;5028228;28;20046;-70
2022/01/03 08:26:13;;;;;;;53.22;28.05;;;;;;;5.27;77.20;101842.47;5028252;28;20088;-70
2022/01/03 08:28:42;;;;;;;72.07;40.17;;;;;;;5.29;76.99;101853.69;5028053;28;20049;-71
2022/01/03 08:31:09;;;;;;;56.08;31.20;;;;;;;5.27;77.48;101871.09;5027060;28;20187;-71
2022/01/03 08:33:36;;;;;;;46.80;26.75;;;;;;;5.26;77.37;101878.91;5028058;28;20049;-71
2022/01/03 08:36:02;;;;;;;47.17;26.52;;;;;;;5.25;77.33;101867.63;5027789;28;20054;-71
2022/01/03 08:38:29;;;;;;;51.33;28.92;;;;;;;5.24;77.37;101871.13;5027846;28;20111;-71
2022/01/03 08:40:56;;;;;;;47.85;24.65;;;;;;;5.27;77.38;101871.09;5028067;28;20045;-73
2022/01/03 08:43:23;;;;;;;45.28;24.30;;;;;;;5.28;77.42;101871.94;5027927;28;20045;-71
2022/01/03 08:45:50;;;;;;;47.28;24.48;;;;;;;5.31;77.27;101877.09;5026987;28;20049;-71
2022/01/03 08:48:17;;;;;;;45.30;24.25;;;;;;;5.32;77.37;101882.28;5028001;28;20451;-70
2022/01/03 08:50:43;;;;;;;46.78;24.67;;;;;;;5.33;77.44;101860.59;5027856;28;20110;-70
2022/01/03 08:53:11;;;;;;;42.67;24.30;;;;;;;5.37;77.23;101862.25;5031484;28;20123;-71
2022/01/03 08:55:38;;;;;;;45.72;25.30;;;;;;;5.41;77.24;101855.25;5032157;28;20081;-73
2022/01/03 08:58:05;;;;;;;44.22;22.83;;;;;;;5.48;77.02;101871.59;5031670;28;20470;-70
2022/01/03 09:00:31;;;;;;;46.60;24.58;;;;;;;5.50;77.06;101868.09;5031778;28;20095;-70
2022/01/03 09:02:58;;;;;;;51.03;27.05;;;;;;;5.54;76.89;101872.34;5030637;28;20046;-73
2022/01/03 09:05:25;;;;;;;50.67;25.50;;;;;;;5.58;77.07;101874.91;5032025;28;20049;-70
2022/01/03 09:07:51;;;;;;;48.08;25.08;;;;;;;5.60;76.84;101881.81;5031453;28;20150;-71
2022/01/03 09:10:18;;;;;;;47.05;25.83;;;;;;;5.62;76.66;101882.63;5031509;28;20385;-73
2022/01/03 09:12:44;;;;;;;53.22;30.88;;;;;;;5.65;76.92;101887.81;5031440;28;20042;-70
2022/01/03 09:15:11;;;;;;;78.20;40.13;;;;;;;5.71;76.56;101882.50;5031422;28;20041;-72
2022/01/03 09:17:38;;;;;;;64.10;33.75;;;;;;;5.74;76.60;101889.38;5031524;28;20045;-70
2022/01/03 09:20:05;;;;;;;136.68;59.70;;;;;;;5.75;76.35;101882.41;5029952;28;20060;-70
2022/01/03 09:22:37;;;;;;;59.13;30.42;;;;;;;5.77;76.46;101872.84;5031149;28;20046;-70
2022/01/03 09:30:15;;;;;;;69.07;34.55;;;;;;;5.80;76.83;101902.31;5031187;28;20045;-72
2022/01/03 09:32:43;;;;;;;48.05;26.65;;;;;;;5.88;76.62;101905.63;5031239;28;20458;-71
2022/01/03 09:35:10;;;;;;;123.05;60.22;;;;;;;5.86;76.43;101901.31;5031141;28;20054;-70
2022/01/03 09:37:37;;;;;;;173.48;99.80;;;;;;;5.80;76.61;101898.81;5028449;28;20102;-70
2022/01/03 09:40:05;;;;;;;127.97;78.72;;;;;;;5.81;76.66;101900.53;5017278;28;20099;-73
2022/01/03 09:42:34;;;;;;;81.03;46.92;;;;;;;5.84;76.68;101893.53;5030975;28;20779;-73
2022/01/03 09:45:07;;;;;;;45.15;29.35;;;;;;;5.80;76.53;101902.31;5030712;28;20037;-70
2022/01/03 09:47:38;;;;;;;50.50;32.03;;;;;;;5.80;77.05;101899.69;5030359;28;20134;-70
2022/01/03 09:50:06;;;;;;;54.10;33.95;;;;;;;5.88;76.70;101905.63;5030074;28;20610;-74
2022/01/03 09:52:33;;;;;;;62.80;35.72;;;;;;;5.94;76.46;101893.34;5030630;28;20557;-70
2022/01/03 09:55:00;;;;;;;68.75;38.78;;;;;;;5.95;76.58;101890.72;5027725;28;20049;-73
2022/01/03 09:57:28;;;;;;;40.63;25.23;;;;;;;5.95;76.59;101880.28;5030807;28;20049;-70
2022/01/03 09:59:55;;;;;;;34.80;22.95;;;;;;;5.99;76.52;101875.94;5031117;28;20550;-72
2022/01/03 10:02:27;;;;;;;33.85;23.08;;;;;;;5.97;76.30;101875.94;5020452;28;20108;-70
2022/01/03 10:04:54;;;;;;;42.08;26.38;;;;;;;5.98;76.31;101875.09;5030428;28;20103;-74
2022/01/03 10:07:21;;;;;;;69.82;35.88;;;;;;;6.01;76.34;101885.44;5030060;28;20557;-70
2022/01/03 10:09:49;;;;;;;66.70;37.60;;;;;;;6.01;76.32;101895.84;5026282;28;20041;-74
2022/01/03 10:12:18;;;;;;;44.38;27.30;;;;;;;6.05;76.36;101881.88;5030572;28;20045;-71
2022/01/03 10:14:44;;;;;;;49.78;28.08;;;;;;;6.07;76.34;101875.78;5030592;28;20052;-71
2022/01/03 10:17:11;;;;;;;64.43;36.05;;;;;;;6.07;76.11;101875.78;5030567;28;20160;-68
2022/01/03 10:19:56;;;;;;;37.25;22.77;;;;;;;6.08;76.34;101880.09;5030643;28;20124;-67
2022/01/03 10:22:28;;;;;;;70.05;38.70;;;;;;;6.07;76.28;101874.03;5029977;28;20480;-67
2022/01/03 10:24:56;;;;;;;42.35;27.05;;;;;;;6.08;76.23;101877.50;5028205;28;20050;-74
2022/01/03 10:27:43;;;;;;;40.83;25.30;;;;;;;6.08;76.21;101882.72;5028783;28;20050;-68
2022/01/03 10:30:09;;;;;;;;;;;;;;;6.05;76.33;101881.88;5023978;28;20488;-67
2022/01/03 10:32:36;;;;;;;41.58;25.35;;;;;;;6.09;76.22;101887.03;5029505;28;19964;-66
2022/01/03 10:35:14;;;;;;;43.60;26.75;;;;;;;6.06;76.34;101874.94;5029748;28;20064;-67
2022/01/03 10:37:41;;;;;;;73.22;42.03;;;;;;;6.07;76.21;101860.13;5029011;28;20092;-67
2022/01/03 10:40:27;;;;;;;115.13;80.57;;;;;;;6.07;76.22;101862.75;5025108;28;20365;-66
2022/01/03 10:43:12;;;;;;;40.83;26.85;;;;;;;6.05;76.23;101860.19;5028063;28;20507;-67
2022/01/03 10:45:39;;;;;;;38.13;24.77;;;;;;;6.12;76.30;101855.69;5029420;28;20045;-66
2022/01/03 10:48:30;;;;;;;46.25;26.80;;;;;;;6.08;76.29;101862.72;5028308;28;20064;-67
2022/01/03 10:50:59;;;;;;;50.75;34.17;;;;;;;6.15;76.21;101855.66;5013217;28;20048;-67
2022/01/03 10:53:37;;;;;;;41.75;26.27;;;;;;;6.15;76.31;101855.66;5020646;28;20049;-67
2022/01/03 10:56:20;;;;;;;62.70;35.65;;;;;;;6.15;76.13;101861.72;5017426;28;20519;-67
2022/01/03 10:59:15;;;;;;;45.22;28.30;;;;;;;6.18;76.20;101864.28;5013367;28;20042;-67
2022/01/03 11:01:47;;;;;;;41.60;25.77;;;;;;;6.23;76.05;101861.56;5018390;28;20596;-67
2022/01/03 11:04:42;;;;;;;39.45;25.27;;;;;;;6.22;76.03;101852.00;5015874;28;20123;-72
2022/01/03 11:13:21;;;;;;;41.70;25.75;;;;;;;6.32;75.89;101831.84;5009152;28;20599;-67
2022/01/03 11:15:56;;;;;;;40.70;23.90;;;;;;;6.33;75.95;101826.56;5011681;28;20100;-67
2022/01/03 11:18:25;;;;;;;37.53;23.95;;;;;;;6.34;76.01;101824.84;5014022;28;20471;-67
2022/01/03 11:21:15;;;;;;;62.97;33.35;;;;;;;6.30;75.96;101818.84;5012443;28;20038;-67
2022/01/03 11:23:44;;;;;;;70.35;36.63;;;;;;;6.36;75.90;101810.88;5010454;28;20046;-67
2022/01/03 11:26:10;;;;;;;47.28;28.20;;;;;;;6.38;76.02;101803.03;5013703;28;20049;-67
2022/01/03 11:28:37;;;;;;;56.33;34.03;;;;;;;6.34;75.89;101788.34;5009572;28;20073;-67
2022/01/03 11:31:04;;;;;;;41.95;25.73;;;;;;;6.36;76.08;101794.38;5011224;28;20061;-67
2022/01/03 11:33:33;;;;;;;47.55;28.20;;;;;;;6.37;75.92;101798.69;5009207;28;20045;-67
2022/01/03 11:36:23;;;;;;;38.85;25.20;;;;;;;6.37;76.02;101785.66;5010618;28;20128;-67
2022/01/03 11:38:51;;;;;;;38.92;24.83;;;;;;;6.43;75.93;101784.69;5009466;28;20054;-68
2022/01/03 11:41:18;;;;;;;87.53;47.35;;;;;;;6.35;76.01;101792.69;5015545;28;20053;-67
2022/01/03 11:43:44;;;;;;;51.42;31.20;;;;;;;6.35;76.23;101788.31;5010547;28;20443;-68